createdAt,value
2018-05-23T15:11:41.171Z,2.03
2018-05-23T15:14:14.011Z,2.17
2018-05-23T15:16:46.652Z,2.17
2018-05-23T15:19:19.236Z,2.20
2018-05-23T15:21:51.886Z,1.73
2018-05-23T15:24:24.491Z,3.10
2018-05-23T15:26:57.636Z,2.00
2018-05-23T15:29:30.668Z,2.00
2018-05-23T15:32:03.731Z,2.00
2018-05-23T15:34:36.382Z,4.43
2018-05-23T15:37:09.200Z,2.20
2018-05-23T15:39:41.842Z,1.77
2018-05-23T15:42:14.810Z,2.50
2018-05-23T15:44:47.458Z,2.17
2018-05-23T15:47:20.200Z,2.70
2018-05-23T15:49:53.284Z,1.60
2018-05-23T15:52:26.466Z,2.00
2018-05-23T15:54:59.140Z,1.83
2018-05-23T15:57:31.836Z,1.83
2018-05-23T16:00:05.155Z,2.30
2018-05-23T16:02:37.833Z,1.80
2018-05-23T16:05:10.625Z,2.00
2018-05-23T16:07:44.045Z,1.90
2018-05-23T16:10:16.809Z,1.60
2018-05-23T16:12:49.521Z,1.90
2018-05-23T16:15:22.574Z,2.10
2018-05-23T16:17:55.561Z,1.67
2018-05-23T16:20:28.552Z,1.57
2018-05-23T16:23:01.285Z,1.50
2018-05-23T16:25:33.979Z,1.60
2018-05-23T16:28:06.610Z,1.83
2018-05-23T16:30:39.280Z,1.30
2018-05-23T16:33:11.899Z,1.50
2018-05-23T16:35:44.618Z,1.67
2018-05-23T16:38:18.240Z,1.60
2018-05-23T16:40:52.801Z,1.70
2018-05-23T16:43:25.663Z,2.17
2018-05-23T16:45:58.580Z,1.83
2018-05-23T16:48:31.173Z,1.73
2018-05-23T16:51:04.041Z,2.33
2018-05-23T16:53:36.721Z,2.10
2018-05-23T16:56:09.431Z,1.90
2018-05-23T16:58:42.044Z,1.80
2018-05-23T17:01:14.926Z,1.57
2018-05-23T17:03:47.715Z,1.90
2018-05-23T17:06:20.636Z,1.70
2018-05-23T17:08:53.272Z,2.00
2018-05-23T17:11:26.043Z,2.00
2018-05-23T17:13:58.684Z,1.93
2018-05-23T17:16:31.338Z,1.80
2018-05-23T17:19:04.139Z,1.50
2018-05-23T17:21:37.385Z,1.90
2018-05-23T17:24:10.286Z,2.00
2018-05-23T17:26:43.361Z,2.13
2018-05-23T17:29:16.363Z,2.20
2018-05-23T17:31:49.603Z,1.67
2018-05-23T17:34:22.656Z,2.57
2018-05-23T17:36:55.933Z,1.70
2018-05-23T17:39:28.848Z,2.40
2018-05-23T17:42:01.665Z,1.93
2018-05-23T17:44:34.867Z,2.20
2018-05-23T17:47:07.539Z,2.17
2018-05-23T17:49:40.143Z,2.00
2018-05-23T17:52:12.845Z,2.10
2018-05-23T17:54:45.779Z,2.67
2018-05-23T17:57:18.759Z,2.20
2018-05-23T17:59:51.593Z,2.40
2018-05-23T18:02:25.061Z,2.53
2018-05-23T18:04:57.696Z,1.70
2018-05-23T18:07:30.367Z,2.40
2018-05-23T18:10:03.047Z,1.83
2018-05-23T18:12:35.913Z,2.20
2018-05-23T18:15:08.622Z,2.10
2018-05-23T18:17:41.416Z,2.10
2018-05-23T18:20:14.084Z,2.70
2018-05-23T18:22:47.048Z,2.20
2018-05-23T18:25:19.916Z,2.03
2018-05-23T18:27:53.456Z,2.33
2018-05-23T18:30:33.273Z,2.60
2018-05-23T18:33:06.006Z,1.83
2018-05-23T18:35:39.085Z,2.40
2018-05-23T18:38:11.899Z,2.00
2018-05-23T18:40:44.616Z,2.10
2018-05-23T18:43:17.488Z,2.23
2018-05-23T18:45:50.215Z,2.43
2018-05-23T18:48:22.983Z,2.67
2018-05-23T18:50:55.810Z,2.77
2018-05-23T18:53:28.468Z,2.40
2018-05-23T18:56:01.167Z,2.30
2018-05-23T18:58:33.858Z,2.90
2018-05-23T19:01:06.718Z,2.57
2018-05-23T19:03:39.364Z,2.37
2018-05-23T19:06:12.065Z,2.40
2018-05-23T19:08:44.756Z,2.53
2018-05-23T19:11:17.452Z,2.67
2018-05-23T19:13:50.483Z,2.20
2018-05-23T19:16:23.384Z,2.50
2018-05-23T19:18:56.158Z,2.67
2018-05-23T19:21:28.829Z,2.40
2018-05-23T19:24:01.660Z,3.00
2018-05-23T19:26:34.341Z,2.50
2018-05-23T19:29:06.968Z,2.47
2018-05-23T19:31:39.955Z,2.63
2018-05-23T19:34:12.800Z,2.97
2018-05-23T19:36:46.494Z,2.37
2018-05-23T19:39:14.141Z,2.53
2018-05-23T19:41:41.718Z,2.60
2018-05-23T19:44:09.229Z,3.00
2018-05-23T19:46:36.909Z,3.03
2018-05-23T19:49:04.676Z,2.90
2018-05-23T19:51:32.621Z,2.70
2018-05-23T19:54:00.313Z,2.80
2018-05-23T19:56:27.979Z,2.57
2018-05-23T19:58:55.561Z,2.57
2018-05-23T20:01:23.280Z,3.07
2018-05-23T20:03:50.808Z,3.13
2018-05-23T20:06:18.403Z,2.80
2018-05-23T20:08:45.938Z,2.30
2018-05-23T20:11:13.732Z,3.03
2018-05-23T20:13:41.423Z,3.10
2018-05-23T20:16:09.573Z,2.80
2018-05-23T20:18:37.150Z,2.90
2018-05-23T20:21:04.793Z,2.70
2018-05-23T20:23:32.342Z,3.20
2018-05-23T20:26:00.103Z,2.50
2018-05-23T20:28:28.672Z,3.10
2018-05-23T20:30:57.363Z,3.40
2018-05-23T20:33:25.964Z,3.70
2018-05-23T20:35:54.572Z,3.00
2018-05-23T20:38:23.304Z,3.00
2018-05-23T20:40:52.184Z,3.07
2018-05-23T20:43:20.876Z,3.23
2018-05-23T20:45:51.638Z,4.23
2018-05-23T20:48:20.848Z,3.80
2018-05-23T20:50:50.681Z,3.23
2018-05-23T20:53:19.366Z,3.57
2018-05-23T20:55:48.852Z,3.90
2018-05-23T20:58:17.683Z,3.77
2018-05-23T21:00:46.456Z,3.27
2018-05-23T21:03:15.120Z,4.10
2018-05-23T21:05:44.743Z,3.67
2018-05-23T21:08:14.228Z,3.57
2018-05-23T21:10:44.074Z,3.83
2018-05-23T21:13:13.683Z,3.90
2018-05-23T21:15:43.284Z,3.00
2018-05-23T21:18:12.692Z,3.00
2018-05-23T21:20:42.306Z,3.83
2018-05-23T21:23:11.995Z,3.40
2018-05-23T21:25:40.857Z,3.27
2018-05-23T21:28:09.552Z,3.60
2018-05-23T21:30:38.076Z,3.60
2018-05-23T21:33:06.944Z,3.53
2018-05-23T21:35:36.576Z,3.20
2018-05-23T21:38:06.036Z,3.33
2018-05-23T21:40:35.606Z,3.30
2018-05-23T21:43:05.056Z,3.63
2018-05-23T21:45:33.681Z,3.77
2018-05-23T21:48:02.475Z,3.40
2018-05-23T21:50:30.996Z,2.77
2018-05-23T21:52:59.470Z,3.63
2018-05-23T21:55:28.153Z,4.10
2018-05-23T21:57:56.813Z,3.90
2018-05-23T22:00:25.349Z,3.37
2018-05-23T22:02:53.972Z,3.70
2018-05-23T22:05:22.700Z,3.50
2018-05-23T22:07:51.336Z,7.57
2018-05-23T22:10:19.855Z,3.87
2018-05-23T22:12:49.391Z,4.07
2018-05-23T22:15:18.923Z,3.20
2018-05-23T22:17:51.915Z,3.40
2018-05-23T22:20:24.430Z,3.50
2018-05-23T22:22:53.850Z,3.63
2018-05-23T22:25:23.486Z,3.57
2018-05-23T22:27:52.935Z,4.40
2018-05-23T22:30:21.898Z,4.13
2018-05-23T22:32:50.987Z,3.70
2018-05-23T22:35:19.649Z,4.10
2018-05-23T22:37:48.467Z,3.90
2018-05-23T22:40:17.610Z,3.20
2018-05-23T22:42:47.102Z,3.87
2018-05-23T22:45:15.813Z,4.03
2018-05-23T22:47:45.352Z,4.13
2018-05-23T22:50:14.844Z,3.90
2018-05-23T22:52:44.658Z,3.83
2018-05-23T22:55:14.353Z,3.60
2018-05-23T22:57:43.959Z,4.40
2018-05-23T23:00:14.054Z,3.77
2018-05-23T23:02:42.791Z,3.30
2018-05-23T23:05:11.302Z,3.53
2018-05-23T23:07:43.018Z,4.07
2018-05-23T23:10:11.672Z,4.00
2018-05-23T23:12:40.328Z,3.50
2018-05-23T23:15:09.027Z,3.90
2018-05-23T23:17:37.529Z,3.50
2018-05-23T23:20:06.095Z,3.87
2018-05-23T23:22:39.221Z,4.20
2018-05-23T23:25:07.872Z,4.23
2018-05-23T23:27:36.767Z,3.60
2018-05-23T23:30:07.642Z,3.80
2018-05-23T23:32:37.908Z,3.93
2018-05-23T23:35:10.999Z,3.67
2018-05-23T23:37:39.875Z,3.87
2018-05-23T23:40:09.851Z,3.83
2018-05-23T23:42:40.032Z,4.20
2018-05-23T23:45:08.736Z,3.47
2018-05-23T23:47:38.408Z,3.97
2018-05-23T23:50:08.079Z,3.33
2018-05-23T23:52:37.000Z,3.63
2018-05-23T23:55:05.618Z,4.10
2018-05-23T23:57:34.291Z,3.70
